地図

経路データ

SID SEASON NUMBER BASIN SUBBASIN NAME ISO_TIME NATURE LAT LON WMO_WIND WMO_PRES WMO_AGENCY TRACK_TYPE DIST2LAND LANDFALL IFLAG USA_AGENCY USA_ATCF_ID USA_LAT USA_LON USA_RECORD USA_STATUS USA_WIND USA_PRES USA_SSHS USA_R34_NE USA_R34_SE USA_R34_SW USA_R34_NW USA_R50_NE USA_R50_SE USA_R50_SW USA_R50_NW USA_R64_NE USA_R64_SE USA_R64_SW USA_R64_NW USA_POCI USA_ROCI USA_RMW USA_EYE TOKYO_LAT TOKYO_LON TOKYO_GRADE TOKYO_WIND TOKYO_PRES TOKYO_R50_DIR TOKYO_R50_LONG TOKYO_R50_SHORT TOKYO_R30_DIR TOKYO_R30_LONG TOKYO_R30_SHORT TOKYO_LAND CMA_LAT CMA_LON CMA_CAT CMA_WIND CMA_PRES HKO_LAT HKO_LON HKO_CAT HKO_WIND HKO_PRES NEWDELHI_LAT NEWDELHI_LON NEWDELHI_GRADE NEWDELHI_WIND NEWDELHI_PRES NEWDELHI_CI NEWDELHI_DP NEWDELHI_POCI REUNION_LAT REUNION_LON REUNION_TYPE REUNION_WIND REUNION_PRES REUNION_TNUM REUNION_CI REUNION_RMW REUNION_R34_NE REUNION_R34_SE REUNION_R34_SW REUNION_R34_NW REUNION_R50_NE REUNION_R50_SE REUNION_R50_SW REUNION_R50_NW REUNION_R64_NE REUNION_R64_SE REUNION_R64_SW REUNION_R64_NW BOM_LAT BOM_LON BOM_TYPE BOM_WIND BOM_PRES BOM_TNUM BOM_CI BOM_RMW BOM_R34_NE BOM_R34_SE BOM_R34_SW BOM_R34_NW BOM_R50_NE BOM_R50_SE BOM_R50_SW BOM_R50_NW BOM_R64_NE BOM_R64_SE BOM_R64_SW BOM_R64_NW BOM_ROCI BOM_POCI BOM_EYE BOM_POS_METHOD BOM_PRES_METHOD NADI_LAT NADI_LON NADI_CAT NADI_WIND NADI_PRES WELLINGTON_LAT WELLINGTON_LON WELLINGTON_WIND WELLINGTON_PRES DS824_LAT DS824_LON DS824_STAGE DS824_WIND DS824_PRES TD9636_LAT TD9636_LON TD9636_STAGE TD9636_WIND TD9636_PRES TD9635_LAT TD9635_LON TD9635_WIND TD9635_PRES TD9635_ROCI NEUMANN_LAT NEUMANN_LON NEUMANN_CLASS NEUMANN_WIND NEUMANN_PRES MLC_LAT MLC_LON MLC_CLASS MLC_WIND MLC_PRES USA_GUST BOM_GUST BOM_GUST_PER REUNION_GUST REUNION_GUST_PER USA_SEAHGT USA_SEARAD_NE USA_SEARAD_SE USA_SEARAD_SW USA_SEARAD_NW STORM_SPEED STORM_DIR
1964236N22088 1964 68 NI BB NOT_NAMED 1964-08-22 18:00:00 TS 21.9000 87.7000 main 0 0 O________O____ jtwc_io IO081964 21.9000 87.7000 -1 21.9000 87.7000 TC 3 323
1964236N22088 1964 68 NI BB NOT_NAMED 1964-08-22 21:00:00 TS 22.0000 87.6175 main 0 0 P________P____ IO081964 22.0000 87.6175 -1 22.0000 87.6175 TC 3 317
1964236N22088 1964 68 NI BB NOT_NAMED 1964-08-23 00:00:00 TS 22.1000 87.5000 main 0 0 O________O____ jtwc_io IO081964 22.1000 87.5000 -1 22.1000 87.5000 TC 25 3 306
1964236N22088 1964 68 NI BB NOT_NAMED 1964-08-23 03:00:00 TS 22.2000 87.3200 main 0 0 P________PO___ IO081964 22.2000 87.3225 -1 22.2000 87.3225 TC 25 22.2000 87.3000 1 4 298
1964236N22088 1964 68 NI BB NOT_NAMED 1964-08-23 06:00:00 TS 22.2978 87.0975 main 0 0 O________OP___ jtwc_io IO081964 22.3000 87.1000 -1 22.3000 87.1000 TC 25 22.2892 87.0875 1 5 294
1964236N22088 1964 68 NI BB NOT_NAMED 1964-08-23 09:00:00 TS 22.3953 86.8554 main 0 0 P________PP___ IO081964 22.4000 86.8500 -1 22.4000 86.8500 TC 25 22.3826 86.8699 1 5 294
1964236N22088 1964 68 NI BB NOT_NAMED 1964-08-23 12:00:00 TS 22.4949 86.6141 main 0 0 O________OP___ jtwc_io IO081964 22.5000 86.6000 -1 22.5000 86.6000 TC 25 22.4847 86.6424 1 5 296
1964236N22088 1964 68 NI BB NOT_NAMED 1964-08-23 15:00:00 TS 22.5949 86.4049 main 0 0 P________PO___ IO081964 22.5924 86.4074 -1 22.5924 86.4074 TC 25 22.6000 86.4000 1 5 298
1964236N22088 1964 68 NI BB NOT_NAMED 1964-08-23 18:00:00 TS 22.7100 86.1804 main 0 0 O________OP___ jtwc_io IO081964 22.7000 86.2000 -1 22.7000 86.2000 TC 25 22.7301 86.1411 1 5 299
1964236N22088 1964 68 NI BB NOT_NAMED 1964-08-23 21:00:00 TS 22.8551 85.8927 main 0 0 P________PP___ IO081964 22.8501 85.9001 -1 22.8501 85.9001 TC 25 22.8652 85.8778 1 6 299
1964236N22088 1964 68 NI BB NOT_NAMED 1964-08-24 00:00:00 TS 22.9975 85.6085 main 0 0 O________OP___ jtwc_io IO081964 23.0000 85.6000 -1 23.0000 85.6000 TC 25 22.9926 85.6255 1 5 299
1964236N22088 1964 68 NI BB NOT_NAMED 1964-08-24 03:00:00 TS 23.1100 85.3850 main 0 0 P________PO___ IO081964 23.1149 85.3774 -1 23.1149 85.3774 TC 25 23.1000 85.4000 1 4 298
1964236N22088 1964 68 NI BB NOT_NAMED 1964-08-24 06:00:00 TS 23.1918 85.2043 main 0 0 O________OP___ jtwc_io IO081964 23.2000 85.2000 -1 23.2000 85.2000 TC 25 23.1755 85.2129 1 3 294
1964236N22088 1964 68 NI BB NOT_NAMED 1964-08-24 09:00:00 TS 23.2533 85.0416 main 0 0 P________PP___ IO081964 23.2650 85.0350 -1 23.2650 85.0350 TC 25 23.2298 85.0547 1 3 290
1964236N22088 1964 68 NI BB NOT_NAMED 1964-08-24 12:00:00 TS 23.2898 84.9064 main 0 0 O________OP___ jtwc_io IO081964 23.3000 84.9000 -1 23.3000 84.9000 TC 25 23.2693 84.9192 1 2 283
1964236N22088 1964 68 NI BB NOT_NAMED 1964-08-24 15:00:00 TS 23.3050 84.7900 main 0 0 P________PO___ IO081964 23.3075 84.7850 -1 23.3075 84.7850 TC 25 23.3000 84.8000 1 2 275
1964236N22088 1964 68 NI BB NOT_NAMED 1964-08-24 18:00:00 TS 23.3050 84.7194 main 0 0 O________OP___ jtwc_io IO081964 23.3000 84.7000 -1 23.3000 84.7000 TC 25 23.3151 84.7582 1 1 266
1964236N22088 1964 68 NI BB NOT_NAMED 1964-08-24 21:00:00 TS 23.2986 84.6930 main 0 0 P________PP___ IO081964 23.2849 84.6799 -1 23.2849 84.6799 TC 25 23.3261 84.7191 1 1 276
1964236N22088 1964 68 NI BB NOT_NAMED 1964-08-25 00:00:00 TS 23.3164 84.6068 main 0 0 O________OP___ jtwc_io IO081964 23.3000 84.6000 -1 23.3000 84.6000 TC 25 23.3491 84.6205 1 3 287
1964236N22088 1964 68 NI BB NOT_NAMED 1964-08-25 03:00:00 TS 23.3848 84.3883 main 0 0 P________PO___ IO081964 23.3772 84.3824 -1 23.3772 84.3824 TC 25 23.4000 84.4000 1 6 288
1964236N22088 1964 68 NI BB NOT_NAMED 1964-08-25 06:00:00 TS 23.4978 83.9905 main 0 0 O________OP___ jtwc_io IO081964 23.5000 84.0000 -1 23.5000 84.0000 TC 25 23.4933 83.9716 1 9 286
1964236N22088 1964 68 NI BB NOT_NAMED 1964-08-25 09:00:00 TS 23.6382 83.4320 main 0 0 P________PP___ IO081964 23.6503 83.4377 -1 23.6503 83.4377 TC 25 23.6141 83.4205 1 11 285
1964236N22088 1964 68 NI BB NOT_NAMED 1964-08-25 12:00:00 TS 23.7842 82.8030 main 0 0 O________OP___ jtwc_io IO081964 23.8000 82.8000 -1 23.8000 82.8000 TC 25 23.7526 82.8090 1 11 283
1964236N22088 1964 68 NI BB NOT_NAMED 1964-08-25 15:00:00 TS 23.8949 82.2231 main 0 0 P________PO___ IO081964 23.8923 82.2346 -1 23.8923 82.2346 TC 25 23.9000 82.2000 1 10 283
1964236N22088 1964 68 NI BB NOT_NAMED 1964-08-25 18:00:00 TS 24.0168 81.6898 main 0 0 O________OP___ jtwc_io IO081964 24.0000 81.7000 -1 24.0000 81.7000 TC 25 24.0505 81.6695 1 10 288
1964236N22088 1964 68 NI BB NOT_NAMED 1964-08-25 21:00:00 TS 24.2022 81.1752 main 0 0 P________PP___ IO081964 24.1998 81.1852 -1 24.1998 81.1852 TC 25 24.2071 81.1552 1 10 292
1964236N22088 1964 68 NI BB NOT_NAMED 1964-08-26 00:00:00 TS 24.3867 80.6878 main 0 0 O________OP___ jtwc_io IO081964 24.4000 80.7000 -1 24.4000 80.7000 TC 25 24.3601 80.6633 1 9 290
1964236N22088 1964 68 NI BB NOT_NAMED 1964-08-26 03:00:00 TS 24.5099 80.2232 main 0 0 P________PO___ IO081964 24.5149 80.2348 -1 24.5149 80.2348 TC 25 24.5000 80.2000 1 8 285
1964236N22088 1964 68 NI BB NOT_NAMED 1964-08-26 06:00:00 TS 24.6080 79.7877 main 0 0 O________OP___ jtwc_io IO081964 24.6000 79.8000 -1 24.6000 79.8000 TC 25 24.6200 79.7693 1 8 284
1964236N22088 1964 68 NI BB NOT_NAMED 1964-08-26 09:00:00 TS 24.7071 79.3809 main 0 0 P________PP___ IO081964 24.6952 79.3927 -1 24.6952 79.3927 TC 25 24.7231 79.3651 1 8 285
1964236N22088 1964 68 NI BB NOT_NAMED 1964-08-26 12:00:00 TS 24.8073 78.9891 main 0 0 O________OP___ jtwc_io IO081964 24.8000 79.0000 -1 24.8000 79.0000 TC 25 24.8146 78.9783 1 7 285
1964236N22088 1964 68 NI BB NOT_NAMED 1964-08-26 15:00:00 NR 24.9000 78.6000 main 0 __________O___ IO081964 -1 TC 24.9000 78.6000 1 7 285

IBTrACS Databaseについて

本データベースは、米国NOAAが公開する1842年以降の世界の熱帯低気圧のベストトラックデータアーカイブInternational Best Track Archive for Climate Stewardship (IBTrACS)を、ウェブで閲覧しやすい形式に変換したものです。

最終更新日:2021-11-26